createdAt,value
2023-04-02T00:02:34.455Z,93.67
2023-04-02T00:05:19.693Z,93.64
2023-04-02T00:07:54.344Z,93.37
2023-04-02T00:10:26.873Z,93.63
2023-04-02T00:13:00.810Z,93.75
2023-04-02T00:15:31.327Z,93.95
2023-04-02T00:18:01.742Z,93.79
2023-04-02T00:20:36.542Z,94.08
2023-04-02T00:23:07.896Z,93.75
2023-04-02T00:25:42.817Z,93.21
2023-04-02T00:28:19.507Z,93.51
2023-04-02T00:30:54.011Z,92.72
2023-04-02T00:33:26.799Z,92.90
2023-04-02T00:35:58.140Z,92.90
2023-04-02T00:38:31.556Z,92.57
2023-04-02T00:41:04.038Z,92.62
2023-04-02T00:43:37.208Z,92.07
2023-04-02T00:46:21.989Z,91.86
2023-04-02T00:48:57.724Z,92.04
2023-04-02T00:51:26.031Z,92.09
2023-04-02T00:53:54.158Z,92.34
2023-04-02T00:56:25.920Z,92.41
2023-04-02T00:58:55.431Z,92.57
2023-04-02T01:01:30.022Z,92.43
2023-04-02T01:03:59.111Z,92.42
2023-04-02T01:06:30.150Z,92.54
2023-04-02T01:09:21.261Z,92.58
2023-04-02T01:12:03.264Z,92.24
2023-04-02T01:14:47.799Z,92.53
2023-04-02T01:17:23.055Z,92.50
2023-04-02T01:20:11.043Z,91.98
2023-04-02T01:22:54.214Z,91.40
2023-04-02T01:25:46.474Z,91.51
2023-04-02T01:28:33.679Z,91.51
2023-04-02T01:31:07.529Z,90.98
2023-04-02T01:33:37.617Z,91.21
2023-04-02T01:36:14.813Z,91.13
2023-04-02T01:38:52.197Z,90.92
2023-04-02T01:41:30.671Z,90.97
2023-04-02T01:44:08.679Z,90.20
2023-04-02T01:46:40.760Z,90.41
2023-04-02T01:49:25.525Z,89.84
2023-04-02T01:51:57.680Z,89.84
2023-04-02T01:54:25.885Z,90.12
2023-04-02T01:56:55.778Z,90.07
2023-04-02T01:59:24.150Z,89.99
2023-04-02T02:02:01.803Z,89.73
2023-04-02T02:04:29.224Z,90.18
2023-04-02T02:07:00.751Z,90.10
2023-04-02T02:09:35.596Z,90.37
2023-04-02T02:12:05.270Z,90.43
2023-04-02T02:14:34.863Z,90.92
2023-04-02T02:17:13.501Z,90.02
2023-04-02T02:19:42.702Z,89.86
2023-04-02T02:22:16.988Z,90.21
2023-04-02T02:24:44.554Z,90.39
2023-04-02T02:27:25.498Z,90.74
2023-04-02T02:30:29.520Z,90.85
2023-04-02T02:33:03.214Z,90.56
2023-04-02T02:35:37.744Z,91.03
2023-04-02T02:38:25.700Z,91.00
2023-04-02T02:40:57.794Z,90.96
2023-04-02T02:43:26.546Z,90.96
2023-04-02T02:45:56.873Z,91.31
2023-04-02T02:48:36.745Z,91.25
2023-04-02T02:51:13.269Z,91.32
2023-04-02T02:53:51.780Z,91.36
2023-04-02T02:56:23.080Z,91.23
2023-04-02T02:58:52.921Z,91.50
2023-04-02T03:01:22.538Z,91.22
2023-04-02T03:03:53.709Z,91.03
2023-04-02T03:06:23.242Z,91.00
2023-04-02T03:09:18.595Z,91.08
2023-04-02T03:12:13.070Z,90.82
2023-04-02T03:15:02.977Z,90.74
2023-04-02T03:17:41.063Z,90.54
2023-04-02T03:20:20.178Z,90.72
2023-04-02T03:22:54.563Z,90.54
2023-04-02T03:25:30.856Z,90.89
2023-04-02T03:28:06.722Z,91.04
2023-04-02T03:30:39.220Z,91.03
2023-04-02T03:33:30.457Z,90.54
2023-04-02T03:36:06.394Z,90.05
2023-04-02T03:38:43.487Z,90.30
2023-04-02T03:41:09.862Z,90.53
2023-04-02T03:43:48.938Z,90.15
2023-04-02T03:47:00.086Z,90.20
2023-04-02T03:49:34.262Z,89.26
2023-04-02T03:52:12.939Z,89.31
2023-04-02T03:54:41.089Z,88.95
2023-04-02T03:57:32.154Z,89.36
2023-04-02T04:00:08.157Z,89.34
2023-04-02T04:02:46.169Z,89.35
2023-04-02T04:05:24.350Z,88.50
2023-04-02T04:07:52.955Z,88.41
2023-04-02T04:10:25.278Z,87.90
2023-04-02T04:13:02.044Z,87.55
2023-04-02T04:15:40.543Z,87.69
2023-04-02T04:18:40.917Z,87.94
2023-04-02T04:21:29.761Z,87.75
2023-04-02T04:24:03.450Z,87.81
2023-04-02T04:26:41.145Z,87.40
2023-04-02T04:29:34.066Z,86.65
2023-04-02T04:32:50.584Z,86.63
2023-04-02T04:35:26.644Z,86.70
2023-04-02T04:38:15.534Z,86.13
2023-04-02T04:40:54.140Z,86.37
2023-04-02T04:43:49.660Z,85.18
2023-04-02T04:46:24.850Z,85.21
2023-04-02T04:49:20.847Z,85.57
2023-04-02T04:51:59.109Z,85.76
2023-04-02T04:54:26.983Z,85.72
2023-04-02T04:57:03.940Z,85.87
2023-04-02T04:59:51.416Z,86.32
2023-04-02T05:02:24.092Z,85.28
2023-04-02T05:04:55.652Z,84.84
2023-04-02T05:07:28.384Z,85.29
2023-04-02T05:10:24.810Z,84.95
2023-04-02T05:13:16.060Z,85.76
2023-04-02T05:15:52.889Z,83.47
2023-04-02T05:18:40.328Z,83.54
2023-04-02T05:21:32.091Z,84.80
2023-04-02T05:24:20.343Z,84.31
2023-04-02T05:26:51.872Z,84.60
2023-04-02T05:29:24.945Z,84.72
2023-04-02T05:31:57.511Z,84.97
2023-04-02T05:34:29.712Z,84.57
2023-04-02T05:36:58.483Z,85.05
2023-04-02T05:39:30.361Z,84.74
2023-04-02T05:42:00.913Z,85.02
2023-04-02T05:44:32.294Z,84.18
2023-04-02T05:47:12.263Z,84.41
2023-04-02T05:49:45.733Z,84.50
2023-04-02T05:52:19.844Z,84.41
2023-04-02T05:54:52.125Z,84.48
2023-04-02T05:57:42.372Z,84.18
2023-04-02T06:00:23.058Z,84.40
2023-04-02T06:02:59.917Z,84.28
2023-04-02T06:05:34.154Z,84.44
2023-04-02T06:08:07.648Z,84.57
2023-04-02T06:10:42.693Z,84.23
2023-04-02T06:13:16.279Z,84.44
2023-04-02T06:15:42.832Z,84.98
2023-04-02T06:18:15.377Z,84.73
2023-04-02T06:20:44.298Z,83.68
2023-04-02T06:23:19.777Z,84.05
2023-04-02T06:26:19.562Z,84.27
2023-04-02T06:28:56.418Z,83.99
2023-04-02T06:31:38.121Z,84.50
2023-04-02T06:34:07.729Z,83.74
2023-04-02T06:36:36.563Z,84.27
2023-04-02T06:39:11.693Z,83.83
2023-04-02T06:41:38.199Z,83.78
2023-04-02T06:44:13.288Z,83.92
2023-04-02T06:46:47.545Z,83.37
2023-04-02T06:49:39.269Z,82.84
2023-04-02T06:52:14.697Z,82.38
2023-04-02T06:54:43.801Z,83.16
2023-04-02T06:57:16.829Z,83.19
2023-04-02T06:59:46.145Z,82.33
2023-04-02T07:02:21.290Z,82.81
2023-04-02T07:04:48.421Z,83.24
2023-04-02T07:07:17.324Z,82.81
2023-04-02T07:09:43.904Z,82.68
2023-04-02T07:12:13.990Z,82.68
2023-04-02T07:14:47.932Z,83.35
2023-04-02T07:17:21.407Z,83.19
2023-04-02T07:19:51.246Z,83.46
2023-04-02T07:22:23.635Z,83.02
2023-04-02T07:24:52.507Z,83.66
2023-04-02T07:27:23.767Z,83.52
2023-04-02T07:29:50.436Z,83.65
2023-04-02T07:32:17.677Z,83.38
2023-04-02T07:34:47.189Z,83.65
2023-04-02T07:37:14.520Z,83.79
2023-04-02T07:39:41.480Z,84.09
2023-04-02T07:42:08.076Z,83.98
2023-04-02T07:44:34.976Z,84.60
2023-04-02T07:47:04.198Z,84.21
2023-04-02T07:49:33.015Z,84.67
2023-04-02T07:52:02.083Z,84.50
2023-04-02T07:54:31.267Z,84.52
2023-04-02T07:56:59.959Z,84.05
2023-04-02T07:59:28.842Z,84.01
2023-04-02T08:01:56.036Z,84.30
2023-04-02T08:04:27.074Z,83.38
2023-04-02T08:06:56.042Z,83.25
2023-04-02T08:09:24.764Z,83.43
2023-04-02T08:11:54.169Z,83.37
2023-04-02T08:14:21.092Z,83.15
2023-04-02T08:16:48.902Z,82.64
2023-04-02T08:19:15.715Z,82.48
2023-04-02T08:21:45.192Z,82.56
2023-04-02T08:24:11.800Z,82.83
2023-04-02T08:26:40.711Z,81.47
2023-04-02T08:29:07.276Z,80.76
2023-04-02T08:31:33.704Z,79.66
2023-04-02T08:34:01.551Z,80.78
2023-04-02T08:36:37.581Z,80.89
2023-04-02T08:39:11.026Z,79.78
2023-04-02T08:41:44.379Z,80.82
2023-04-02T08:44:39.778Z,80.53
2023-04-02T08:47:10.978Z,79.42
2023-04-02T08:49:43.229Z,79.30
2023-04-02T08:52:25.358Z,79.58
2023-04-02T08:54:53.289Z,79.32
2023-04-02T08:57:34.340Z,80.25
2023-04-02T09:00:10.930Z,79.24
2023-04-02T09:02:47.167Z,80.41
2023-04-02T09:05:37.542Z,79.09
2023-04-02T09:08:07.831Z,78.42
2023-04-02T09:10:50.918Z,77.69
2023-04-02T09:13:25.313Z,77.78
2023-04-02T09:16:02.934Z,78.85
2023-04-02T09:18:35.860Z,77.72
2023-04-02T09:21:32.206Z,78.42
2023-04-02T09:23:58.698Z,78.15
2023-04-02T09:26:32.042Z,76.90
2023-04-02T09:29:16.188Z,76.73
2023-04-02T09:31:59.159Z,74.74
2023-04-02T09:34:34.635Z,75.55
2023-04-02T09:37:29.557Z,76.55
2023-04-02T09:40:29.479Z,75.09
2023-04-02T09:43:14.716Z,72.97
2023-04-02T09:45:43.513Z,72.11
2023-04-02T09:48:30.875Z,71.14
2023-04-02T09:51:11.280Z,71.55
2023-04-02T09:54:03.852Z,70.28
2023-04-02T09:56:32.391Z,68.14
2023-04-02T09:59:22.565Z,71.07
2023-04-02T10:01:57.518Z,67.47
2023-04-02T10:04:50.796Z,66.59
2023-04-02T10:07:32.161Z,67.55
2023-04-02T10:10:00.195Z,65.46
2023-04-02T10:12:33.437Z,66.23
2023-04-02T10:15:03.193Z,67.39
2023-04-02T10:17:36.343Z,66.26
2023-04-02T10:20:17.150Z,61.83
2023-04-02T10:22:47.001Z,62.41
2023-04-02T10:25:17.729Z,61.91
2023-04-02T10:27:49.779Z,64.43
2023-04-02T10:30:24.041Z,61.27
2023-04-02T10:33:05.730Z,61.73
2023-04-02T10:35:56.868Z,61.08
2023-04-02T10:38:26.478Z,62.08
2023-04-02T10:41:27.096Z,61.71
2023-04-02T10:44:17.112Z,60.71
2023-04-02T10:47:41.461Z,60.10
2023-04-02T10:50:32.511Z,60.69
2023-04-02T10:53:15.947Z,59.07
2023-04-02T10:55:58.108Z,59.68
2023-04-02T10:58:30.576Z,59.23
2023-04-02T11:01:07.911Z,60.30
2023-04-02T11:03:40.002Z,59.82
2023-04-02T11:06:16.648Z,64.37
2023-04-02T11:08:46.525Z,57.51
2023-04-02T11:11:23.817Z,57.33
2023-04-02T11:13:56.406Z,60.24
2023-04-02T11:16:27.551Z,62.09
2023-04-02T11:19:15.617Z,60.18
2023-04-02T11:21:57.935Z,58.96
2023-04-02T11:24:34.444Z,56.05
2023-04-02T11:27:10.305Z,57.32
2023-04-02T11:30:06.132Z,57.40
2023-04-02T11:32:53.003Z,58.90
2023-04-02T11:35:34.304Z,61.02
2023-04-02T11:38:21.200Z,57.98
2023-04-02T11:40:59.986Z,56.03
2023-04-02T11:43:32.518Z,56.34
2023-04-02T11:46:05.043Z,57.52
2023-04-02T11:48:31.562Z,54.40
2023-04-02T11:51:05.071Z,54.92
2023-04-02T11:53:36.819Z,59.13
2023-04-02T11:56:33.199Z,54.38
2023-04-02T11:59:05.676Z,56.27
2023-04-02T12:01:50.788Z,56.16
2023-04-02T12:04:31.674Z,57.52
2023-04-02T12:07:26.714Z,53.28
2023-04-02T12:09:58.271Z,54.92
2023-04-02T12:12:28.584Z,56.03
2023-04-02T12:14:57.851Z,54.21
2023-04-02T12:17:30.515Z,54.88
2023-04-02T12:20:02.728Z,54.63
2023-04-02T12:22:33.343Z,52.10
2023-04-02T12:25:23.335Z,52.62
2023-04-02T12:28:04.646Z,52.88
2023-04-02T12:30:38.398Z,54.55
2023-04-02T12:33:38.133Z,54.60
2023-04-02T12:36:24.915Z,54.95
2023-04-02T12:38:57.410Z,54.54
2023-04-02T12:41:31.981Z,51.42
2023-04-02T12:43:58.723Z,54.37
2023-04-02T12:46:26.756Z,54.83
2023-04-02T12:48:57.831Z,54.08
2023-04-02T12:51:25.322Z,55.30
2023-04-02T12:53:53.184Z,53.50
2023-04-02T12:56:23.854Z,53.22
2023-04-02T12:59:00.099Z,54.60
2023-04-02T13:01:32.079Z,54.27
2023-04-02T13:04:12.298Z,52.35
2023-04-02T13:06:48.720Z,54.44
2023-04-02T13:09:35.787Z,51.36
2023-04-02T13:12:08.485Z,50.75
2023-04-02T13:14:35.060Z,52.56
2023-04-02T13:17:01.647Z,52.42
2023-04-02T13:19:35.731Z,51.39
2023-04-02T13:22:06.583Z,52.41
2023-04-02T13:24:36.315Z,53.75
2023-04-02T13:27:03.756Z,53.35
2023-04-02T13:29:35.455Z,53.54
2023-04-02T13:32:04.961Z,53.70
2023-04-02T13:34:32.050Z,51.24
2023-04-02T13:36:58.671Z,50.07
2023-04-02T13:39:25.512Z,54.27
2023-04-02T13:42:07.819Z,51.63
2023-04-02T13:44:38.829Z,48.91
2023-04-02T13:47:05.744Z,49.90
2023-04-02T13:49:34.473Z,52.17
2023-04-02T13:52:06.243Z,50.67
2023-04-02T13:54:50.944Z,48.46
2023-04-02T13:57:20.630Z,48.70
2023-04-02T13:59:49.514Z,49.76
2023-04-02T14:02:24.357Z,49.14
2023-04-02T14:05:02.982Z,51.39
2023-04-02T14:07:34.240Z,51.20
2023-04-02T14:10:19.872Z,48.87
2023-04-02T14:13:22.617Z,49.90
2023-04-02T14:16:17.201Z,49.48
2023-04-02T14:19:06.237Z,50.54
2023-04-02T14:22:23.402Z,50.39
2023-04-02T14:25:07.651Z,50.68
2023-04-02T14:27:53.987Z,51.63
2023-04-02T14:30:45.462Z,53.55
2023-04-02T14:33:39.789Z,49.56
2023-04-02T14:36:22.026Z,49.13
2023-04-02T14:39:14.686Z,50.54
2023-04-02T14:41:57.484Z,48.34
2023-04-02T14:44:28.403Z,50.55
2023-04-02T14:47:14.429Z,49.85
2023-04-02T14:49:45.808Z,52.14
2023-04-02T14:52:18.896Z,50.70
2023-04-02T14:54:52.497Z,51.58
2023-04-02T14:57:23.064Z,51.62
2023-04-02T15:00:30.541Z,51.24
2023-04-02T15:03:10.098Z,52.55
2023-04-02T15:05:39.773Z,51.38
2023-04-02T15:08:22.187Z,52.05
2023-04-02T15:10:50.920Z,54.05
2023-04-02T15:13:29.274Z,50.98
2023-04-02T15:16:11.055Z,52.07
2023-04-02T15:18:38.123Z,50.46
2023-04-02T15:21:10.352Z,51.51
2023-04-02T15:24:09.742Z,52.69
2023-04-02T15:26:54.589Z,51.40
2023-04-02T15:29:48.019Z,52.77
2023-04-02T15:32:36.073Z,53.40
2023-04-02T15:35:23.978Z,51.47
2023-04-02T15:37:57.836Z,52.93
2023-04-02T15:40:56.715Z,53.14
2023-04-02T15:43:44.567Z,52.52
2023-04-02T15:46:23.641Z,50.21
2023-04-02T15:49:10.603Z,49.87
2023-04-02T15:51:48.422Z,52.02
2023-04-02T15:54:48.070Z,50.95
2023-04-02T15:57:46.045Z,52.66
2023-04-02T16:00:23.815Z,51.74
2023-04-02T16:03:19.290Z,53.13
2023-04-02T16:05:55.085Z,52.02
2023-04-02T16:09:09.748Z,53.12
2023-04-02T16:11:39.496Z,53.04
2023-04-02T16:14:29.296Z,53.35
2023-04-02T16:17:10.864Z,52.77
2023-04-02T16:19:49.693Z,52.94
2023-04-02T16:22:34.301Z,53.89
2023-04-02T16:25:22.965Z,53.38
2023-04-02T16:28:00.922Z,54.57
2023-04-02T16:30:44.060Z,54.29
2023-04-02T16:33:16.532Z,54.50
2023-04-02T16:35:58.380Z,54.40
2023-04-02T16:38:52.525Z,54.06
2023-04-02T16:41:41.266Z,55.05
2023-04-02T16:44:50.280Z,54.59
2023-04-02T16:47:53.887Z,55.04
2023-04-02T16:50:47.293Z,55.43
2023-04-02T16:53:14.026Z,56.40
2023-04-02T16:55:50.533Z,55.80
2023-04-02T16:58:43.699Z,55.22
2023-04-02T17:01:31.228Z,54.91
2023-04-02T17:04:19.455Z,55.20
2023-04-02T17:07:26.331Z,55.82
2023-04-02T17:09:57.640Z,57.21
2023-04-02T17:12:43.156Z,56.22
2023-04-02T17:15:27.957Z,56.82
2023-04-02T17:17:58.792Z,56.85
2023-04-02T17:20:29.097Z,56.83
2023-04-02T17:22:58.912Z,57.21
2023-04-02T17:25:41.185Z,57.44
2023-04-02T17:28:14.955Z,57.66
2023-04-02T17:30:49.317Z,57.33
2023-04-02T17:33:18.157Z,57.85
2023-04-02T17:35:59.996Z,58.41
2023-04-02T17:38:45.225Z,58.73
2023-04-02T17:41:37.011Z,58.72
2023-04-02T17:44:21.620Z,59.10
2023-04-02T17:47:11.373Z,58.06
2023-04-02T17:50:04.378Z,59.31
2023-04-02T17:52:48.086Z,59.73
2023-04-02T17:55:40.969Z,59.84
2023-04-02T17:58:19.688Z,60.25
2023-04-02T18:01:24.044Z,60.62
2023-04-02T18:04:23.325Z,61.48
2023-04-02T18:07:08.538Z,60.90
2023-04-02T18:09:41.589Z,61.33
2023-04-02T18:12:36.706Z,61.26
2023-04-02T18:15:35.583Z,61.53
2023-04-02T18:18:36.358Z,61.75
2023-04-02T18:21:15.094Z,61.68
2023-04-02T18:24:19.280Z,62.13
2023-04-02T18:26:57.430Z,62.37
2023-04-02T18:29:35.689Z,62.87
2023-04-02T18:32:19.984Z,62.92
2023-04-02T18:35:01.667Z,63.26
2023-04-02T18:37:43.491Z,63.79
2023-04-02T18:40:22.157Z,63.84
2023-04-02T18:43:00.690Z,64.51
2023-04-02T18:45:46.089Z,64.84
2023-04-02T18:48:28.432Z,64.43
2023-04-02T18:50:55.531Z,64.78
2023-04-02T18:53:25.358Z,64.97
2023-04-02T18:55:56.647Z,65.25
2023-04-02T18:58:34.013Z,65.58
2023-04-02T19:01:08.819Z,66.25
2023-04-02T19:03:47.962Z,66.36
2023-04-02T19:06:22.751Z,65.54
2023-04-02T19:09:03.889Z,65.59
2023-04-02T19:11:31.340Z,65.88
2023-04-02T19:14:20.672Z,66.11
2023-04-02T19:17:26.843Z,66.30
2023-04-02T19:20:17.020Z,67.14
2023-04-02T19:23:30.674Z,66.99
2023-04-02T19:26:12.493Z,67.18
2023-04-02T19:29:05.473Z,67.18
2023-04-02T19:31:46.568Z,67.28
2023-04-02T19:34:25.974Z,67.34
2023-04-02T19:37:04.467Z,67.25
2023-04-02T19:39:37.854Z,67.46
2023-04-02T19:42:14.496Z,67.31
2023-04-02T19:44:44.773Z,67.41
2023-04-02T19:47:11.913Z,67.65
2023-04-02T19:49:43.270Z,67.85
2023-04-02T19:52:12.903Z,67.82
2023-04-02T19:54:42.292Z,67.99
2023-04-02T19:57:14.299Z,68.38
2023-04-02T19:59:43.342Z,68.75
2023-04-02T20:02:11.219Z,69.04
2023-04-02T20:04:40.271Z,69.22
2023-04-02T20:07:08.988Z,69.70
2023-04-02T20:09:35.793Z,69.56
2023-04-02T20:12:02.488Z,69.65
2023-04-02T20:14:28.955Z,69.62
2023-04-02T20:16:57.991Z,69.88
2023-04-02T20:19:29.370Z,70.07
2023-04-02T20:22:00.603Z,70.23
2023-04-02T20:24:27.060Z,70.21
2023-04-02T20:26:53.542Z,70.13
2023-04-02T20:29:24.518Z,70.43
2023-04-02T20:31:51.158Z,70.07
2023-04-02T20:34:17.731Z,70.62
2023-04-02T20:36:47.525Z,70.52
2023-04-02T20:39:19.251Z,70.40
2023-04-02T20:41:51.176Z,70.54
2023-04-02T20:44:17.760Z,70.59
2023-04-02T20:46:44.350Z,70.66
2023-04-02T20:49:11.121Z,70.82
2023-04-02T20:51:39.694Z,70.51
2023-04-02T20:54:10.987Z,70.40
2023-04-02T20:56:37.597Z,70.51
2023-04-02T20:59:04.099Z,70.26
2023-04-02T21:01:30.780Z,70.54
2023-04-02T21:03:59.864Z,70.12
2023-04-02T21:06:29.680Z,70.83
2023-04-02T21:08:56.217Z,70.70
2023-04-02T21:11:23.303Z,70.78
2023-04-02T21:13:54.804Z,70.77
2023-04-02T21:16:32.093Z,71.06
2023-04-02T21:19:07.637Z,71.03
2023-04-02T21:21:38.244Z,70.84
2023-04-02T21:24:06.693Z,70.76
2023-04-02T21:26:36.306Z,70.71
2023-04-02T21:29:06.192Z,70.53
2023-04-02T21:31:40.790Z,70.62
2023-04-02T21:34:09.296Z,70.22
2023-04-02T21:36:45.753Z,70.38
2023-04-02T21:39:17.603Z,70.54
2023-04-02T21:41:49.904Z,70.33
2023-04-02T21:44:20.693Z,70.46
2023-04-02T21:46:51.906Z,70.27
2023-04-02T21:49:22.603Z,70.02
2023-04-02T21:51:52.176Z,70.65
2023-04-02T21:54:18.769Z,70.41
2023-04-02T21:56:46.486Z,70.62
2023-04-02T21:59:17.216Z,70.47
2023-04-02T22:01:46.268Z,70.43
2023-04-02T22:04:22.348Z,70.68
2023-04-02T22:06:50.899Z,70.63
2023-04-02T22:09:22.597Z,71.14
2023-04-02T22:11:56.137Z,70.96
2023-04-02T22:14:25.706Z,71.02
2023-04-02T22:16:52.636Z,71.25
2023-04-02T22:19:19.159Z,71.26
2023-04-02T22:21:47.954Z,71.11
2023-04-02T22:24:19.047Z,71.26
2023-04-02T22:26:46.080Z,71.21
2023-04-02T22:29:12.675Z,71.53
2023-04-02T22:31:39.577Z,71.56
2023-04-02T22:34:06.878Z,71.89
2023-04-02T22:36:33.955Z,71.93
2023-04-02T22:39:01.799Z,72.06
2023-04-02T22:41:32.372Z,72.03
2023-04-02T22:44:03.385Z,72.21
2023-04-02T22:46:32.692Z,72.42
2023-04-02T22:48:59.326Z,72.60
2023-04-02T22:51:30.537Z,72.36
2023-04-02T22:53:59.597Z,72.62
2023-04-02T22:56:35.366Z,72.53
2023-04-02T22:59:01.936Z,72.83
2023-04-02T23:04:00.900Z,72.79
2023-04-02T23:06:29.643Z,72.98
2023-04-02T23:08:56.312Z,72.97
2023-04-02T23:11:27.490Z,72.76
2023-04-02T23:13:58.030Z,72.92
2023-04-02T23:16:28.912Z,72.80
2023-04-02T23:18:56.611Z,72.87
2023-04-02T23:21:24.605Z,72.59
2023-04-02T23:23:54.204Z,72.08
2023-04-02T23:26:29.671Z,71.88
2023-04-02T23:28:57.514Z,72.16
2023-04-02T23:31:26.551Z,71.96
2023-04-02T23:33:53.128Z,71.80
2023-04-02T23:36:21.144Z,71.57
2023-04-02T23:38:47.806Z,71.52
2023-04-02T23:41:19.947Z,71.52
2023-04-02T23:43:46.398Z,71.45
2023-04-02T23:46:12.868Z,71.33
2023-04-02T23:48:39.713Z,71.22
2023-04-02T23:51:08.604Z,71.14
2023-04-02T23:53:37.825Z,71.31
2023-04-02T23:56:06.675Z,70.97
2023-04-02T23:58:33.161Z,71.18
